KCLM/CLM METAR and TAF weather

Enter ICAO airport designator
Station Type Date Time Source
KCLM METAR 2019/04/19 21:53 UTC NOAA

KCLM 192153Z AUTO 29013G19KT 10SM FEW120 13/08 A2999 RMK AO2 SLP157 T01280083


Station Type Date Time Source
KCLM Decoded METAR 2019/04/19 21:53 UTC NOAA

PORT ANGELES FAIRCHILD INTERNATIONAL , WA, United States (KCLM) 48-07N 123-30W 85M
Apr 19, 2019 - 05:53 PM EDT / 2019.04.19 2153 UTC
Wind: from the WNW (290 degrees) at 15 MPH (13 KT) gusting to 22 MPH (19 KT):0
Visibility: 10 mile(s):0
Sky conditions: mostly clear
Temperature: 55.0 F (12.8 C)
Dew Point: 46.9 F (8.3 C)
Relative Humidity: 74%
Pressure (altimeter): 29.99 in. Hg (1015 hPa)
ob: KCLM 192153Z AUTO 29013G19KT 10SM FEW120 13/08 A2999 RMK AO2 SLP157 T01280083
cycle: 22

Station Type Date Time Source
KCLM TAF 2019/04/19 20:09 UTC NOAA

TAF
AMD KCLM 192006Z 1920/2018 31010KT P6SM SCT050 BKN100
FM200200 29012G18KT P6SM SCT040
FM200800 27005KT P6SM FEW050

Example: see airport list